createdAt,value
2023-06-15T00:01:56.379Z,5.72
2023-06-15T00:04:25.135Z,5.20
2023-06-15T00:06:55.692Z,5.37
2023-06-15T00:09:24.619Z,5.15
2023-06-15T00:11:53.376Z,6.28
2023-06-15T00:14:22.278Z,4.93
2023-06-15T00:16:53.801Z,5.15
2023-06-15T00:19:22.906Z,5.43
2023-06-15T00:21:54.876Z,5.50
2023-06-15T00:24:25.247Z,5.35
2023-06-15T00:26:54.038Z,4.65
2023-06-15T00:29:22.801Z,5.57
2023-06-15T00:31:51.598Z,5.43
2023-06-15T00:34:20.511Z,5.60
2023-06-15T00:36:51.457Z,6.20
2023-06-15T00:39:20.792Z,5.13
2023-06-15T00:41:51.062Z,5.38
2023-06-15T00:44:19.874Z,5.70
2023-06-15T00:46:49.625Z,5.82
2023-06-15T00:49:18.751Z,6.47
2023-06-15T00:51:47.836Z,5.60
2023-06-15T00:54:23.707Z,5.10
2023-06-15T00:56:55.108Z,5.43
2023-06-15T00:59:24.447Z,5.65
2023-06-15T01:01:56.253Z,5.70
2023-06-15T01:04:26.953Z,5.68
2023-06-15T01:07:03.478Z,5.30
2023-06-15T01:09:38.515Z,6.03
2023-06-15T01:12:13.903Z,5.30
2023-06-15T01:14:43.694Z,5.72
2023-06-15T01:17:16.941Z,4.85
2023-06-15T01:19:58.934Z,4.93
2023-06-15T01:22:46.835Z,5.73
2023-06-15T01:25:30.922Z,5.78
2023-06-15T01:28:04.380Z,5.10
2023-06-15T01:30:42.657Z,5.50
2023-06-15T01:33:12.815Z,6.18
2023-06-15T01:35:41.935Z,5.30
2023-06-15T01:38:15.233Z,4.80
2023-06-15T01:40:50.611Z,5.50
2023-06-15T01:43:25.150Z,6.53
2023-06-15T01:45:57.820Z,7.35
2023-06-15T01:48:28.257Z,6.90
2023-06-15T01:50:58.465Z,5.65
2023-06-15T01:53:27.443Z,6.03
2023-06-15T01:55:57.925Z,6.10
2023-06-15T01:58:28.169Z,5.38
2023-06-15T02:00:57.112Z,6.40
2023-06-15T02:03:25.972Z,5.40
2023-06-15T02:05:54.758Z,5.63
2023-06-15T02:08:23.537Z,5.75
2023-06-15T02:10:52.645Z,5.82
2023-06-15T02:13:21.593Z,6.97
2023-06-15T02:15:55.720Z,5.85
2023-06-15T02:18:34.749Z,6.63
2023-06-15T02:21:03.394Z,6.05
2023-06-15T02:23:33.649Z,6.38
2023-06-15T02:26:02.535Z,6.23
2023-06-15T02:28:33.906Z,5.90
2023-06-15T02:31:04.237Z,7.22
2023-06-15T02:33:34.894Z,6.38
2023-06-15T02:36:07.399Z,6.40
2023-06-15T02:38:38.561Z,7.07
2023-06-15T02:41:07.582Z,8.73
2023-06-15T02:43:36.533Z,7.03
2023-06-15T02:46:07.891Z,7.57
2023-06-15T02:48:36.707Z,6.53
2023-06-15T02:51:05.788Z,7.00
2023-06-15T02:53:34.582Z,7.78
2023-06-15T02:56:06.348Z,7.90
2023-06-15T02:58:38.572Z,6.80
2023-06-15T03:01:23.025Z,7.90
2023-06-15T03:03:55.763Z,7.43
2023-06-15T03:06:27.247Z,7.90
2023-06-15T03:08:58.710Z,7.82
2023-06-15T03:11:31.191Z,8.90
2023-06-15T03:14:01.130Z,8.43
2023-06-15T03:16:40.635Z,8.87
2023-06-15T03:19:10.756Z,10.88
2023-06-15T03:21:40.860Z,9.82
2023-06-15T03:24:10.687Z,10.15
2023-06-15T03:26:43.348Z,10.80
2023-06-15T03:29:14.608Z,12.33
2023-06-15T03:31:47.604Z,11.27
2023-06-15T03:34:16.962Z,12.63
2023-06-15T03:36:45.975Z,11.40
2023-06-15T03:39:15.927Z,11.43
2023-06-15T03:41:45.206Z,11.67
2023-06-15T03:44:15.204Z,12.13
2023-06-15T03:46:48.172Z,11.70
2023-06-15T03:49:17.456Z,12.07
2023-06-15T03:51:46.736Z,12.48
2023-06-15T03:54:15.805Z,11.70
2023-06-15T03:56:45.263Z,12.65
2023-06-15T03:59:14.240Z,11.63
2023-06-15T04:01:45.827Z,11.65
2023-06-15T04:04:16.441Z,11.75
2023-06-15T04:06:48.050Z,11.83
2023-06-15T04:09:18.396Z,12.23
2023-06-15T04:11:47.622Z,11.52
2023-06-15T04:14:16.586Z,11.82
2023-06-15T04:16:46.902Z,10.70
2023-06-15T04:19:16.450Z,11.27
2023-06-15T04:21:45.266Z,10.90
2023-06-15T04:24:14.562Z,11.20
2023-06-15T04:26:45.371Z,9.25
2023-06-15T04:29:19.573Z,10.80
2023-06-15T04:31:56.099Z,9.43
2023-06-15T04:34:27.610Z,11.00
2023-06-15T04:36:57.411Z,11.73
2023-06-15T04:39:27.023Z,12.90
2023-06-15T04:42:00.545Z,13.07
2023-06-15T04:44:29.833Z,13.47
2023-06-15T04:47:01.709Z,12.52
2023-06-15T04:49:31.952Z,12.65
2023-06-15T04:52:02.034Z,13.65
2023-06-15T04:54:32.033Z,14.02
2023-06-15T04:57:03.368Z,13.43
2023-06-15T04:59:32.632Z,13.90
2023-06-15T05:02:03.268Z,12.82
2023-06-15T05:04:37.713Z,12.85
2023-06-15T05:07:07.801Z,11.65
2023-06-15T05:09:43.401Z,13.07
2023-06-15T05:12:16.679Z,13.02
2023-06-15T05:14:46.311Z,13.43
2023-06-15T05:17:16.833Z,12.30
2023-06-15T05:19:46.121Z,12.25
2023-06-15T05:22:14.956Z,12.70
2023-06-15T05:24:43.884Z,13.85
2023-06-15T05:27:12.905Z,13.77
2023-06-15T05:29:47.309Z,12.20
2023-06-15T05:32:18.136Z,12.05
2023-06-15T05:34:48.407Z,12.37
2023-06-15T05:37:17.232Z,12.15
2023-06-15T05:39:47.431Z,13.32
2023-06-15T05:42:17.681Z,13.20
2023-06-15T05:44:50.532Z,12.98
2023-06-15T05:47:21.044Z,11.80
2023-06-15T05:49:50.973Z,12.55
2023-06-15T05:52:20.446Z,12.40
2023-06-15T05:54:52.307Z,13.02
2023-06-15T05:57:21.369Z,12.30
2023-06-15T05:59:50.384Z,12.57
2023-06-15T06:02:21.225Z,12.48
2023-06-15T06:04:53.048Z,11.75
2023-06-15T06:07:21.840Z,12.10
2023-06-15T06:09:52.851Z,14.00
2023-06-15T06:12:22.104Z,13.53
2023-06-15T06:21:48.106Z,12.20
2023-06-15T06:24:23.010Z,11.48
2023-06-15T06:26:52.985Z,10.88
2023-06-15T06:29:21.843Z,9.77
2023-06-15T06:31:50.659Z,9.60
2023-06-15T06:34:19.542Z,9.13
2023-06-15T06:36:48.426Z,7.53
2023-06-15T06:39:19.046Z,7.43
2023-06-15T06:41:49.157Z,6.83
2023-06-15T06:44:20.009Z,6.55
2023-06-15T06:46:48.877Z,5.43
2023-06-15T06:49:17.691Z,5.88
2023-06-15T06:51:46.646Z,6.68
2023-06-15T06:54:15.518Z,7.40
2023-06-15T06:56:46.566Z,5.97
2023-06-15T06:59:32.092Z,5.45
2023-06-15T07:02:35.464Z,5.47
2023-06-15T07:05:04.686Z,5.63
2023-06-15T07:07:34.982Z,5.60
2023-06-15T07:10:03.967Z,4.32
2023-06-15T07:12:34.950Z,4.65
2023-06-15T07:15:06.982Z,4.68
2023-06-15T07:17:36.308Z,4.03
2023-06-15T07:20:09.512Z,4.23
2023-06-15T07:22:38.934Z,3.60
2023-06-15T07:25:08.812Z,3.78
2023-06-15T07:27:41.972Z,3.80
2023-06-15T07:30:14.848Z,3.90
2023-06-15T07:32:44.477Z,3.07
2023-06-15T07:35:14.907Z,3.08
2023-06-15T07:37:45.203Z,3.63
2023-06-15T07:40:17.128Z,3.28
2023-06-15T07:42:47.722Z,3.20
2023-06-15T07:45:16.735Z,3.00
2023-06-15T07:47:45.772Z,3.17
2023-06-15T07:50:14.799Z,2.60
2023-06-15T07:52:43.864Z,2.80
2023-06-15T07:55:12.921Z,2.53
2023-06-15T07:57:41.727Z,2.27
2023-06-15T08:00:13.850Z,2.63
2023-06-15T08:02:43.050Z,2.92
2023-06-15T08:05:13.087Z,3.00
2023-06-15T08:07:42.178Z,3.13
2023-06-15T08:10:12.441Z,2.50
2023-06-15T08:12:41.286Z,2.40
2023-06-15T08:15:12.530Z,2.13
2023-06-15T08:17:41.905Z,2.70
2023-06-15T08:20:12.151Z,3.03
2023-06-15T08:22:41.537Z,2.57
2023-06-15T08:25:13.679Z,2.75
2023-06-15T08:27:43.340Z,2.85
2023-06-15T08:30:15.386Z,2.65
2023-06-15T08:32:46.417Z,3.53
2023-06-15T08:35:15.641Z,3.27
2023-06-15T08:37:44.808Z,3.65
2023-06-15T08:40:15.181Z,3.08
2023-06-15T08:42:44.709Z,2.75
2023-06-15T08:45:15.318Z,2.70
2023-06-15T08:47:45.701Z,3.43
2023-06-15T08:50:14.671Z,2.70
2023-06-15T08:52:46.561Z,3.45
2023-06-15T08:55:17.397Z,2.90
2023-06-15T08:57:46.796Z,3.05
2023-06-15T09:00:19.061Z,3.30
2023-06-15T09:02:48.964Z,3.00
2023-06-15T09:05:18.020Z,3.05
2023-06-15T09:07:46.800Z,2.67
2023-06-15T09:10:17.891Z,3.33
2023-06-15T09:12:50.245Z,2.90
2023-06-15T09:15:23.146Z,2.83
2023-06-15T09:17:53.565Z,2.95
2023-06-15T09:20:25.889Z,3.35
2023-06-15T09:22:59.701Z,3.42
2023-06-15T09:25:29.209Z,2.70
2023-06-15T09:28:00.650Z,3.47
2023-06-15T09:30:35.592Z,3.03
2023-06-15T09:33:14.453Z,2.78
2023-06-15T09:35:59.673Z,2.83
2023-06-15T09:38:33.587Z,3.77
2023-06-15T09:41:05.499Z,3.08
2023-06-15T09:43:41.477Z,2.55
2023-06-15T09:46:14.929Z,3.20
2023-06-15T09:48:48.106Z,3.53
2023-06-15T09:51:18.431Z,2.90
2023-06-15T09:53:50.022Z,3.40
2023-06-15T09:56:28.627Z,3.17
2023-06-15T09:59:03.930Z,3.00
2023-06-15T10:01:38.395Z,3.00
2023-06-15T10:04:09.396Z,3.30
2023-06-15T10:06:45.104Z,2.92
2023-06-15T10:09:19.026Z,3.28
2023-06-15T10:11:51.764Z,2.65
2023-06-15T10:14:31.088Z,3.72
2023-06-15T10:17:05.253Z,3.37
2023-06-15T10:19:40.163Z,3.47
2023-06-15T10:22:18.781Z,3.78
2023-06-15T10:24:48.689Z,3.70
2023-06-15T10:27:19.165Z,3.45
2023-06-15T10:30:03.731Z,3.43
2023-06-15T10:32:46.997Z,3.25
2023-06-15T10:35:26.396Z,3.70
2023-06-15T10:38:09.435Z,3.67
2023-06-15T10:40:48.814Z,3.90
2023-06-15T10:43:22.331Z,4.10
2023-06-15T10:45:51.328Z,5.00
2023-06-15T10:48:27.489Z,5.18
2023-06-15T10:51:05.926Z,4.20
2023-06-15T10:53:40.875Z,4.65
2023-06-15T10:56:16.054Z,4.73
2023-06-15T10:58:56.894Z,4.28
2023-06-15T11:01:28.346Z,4.10
2023-06-15T11:03:59.695Z,4.45
2023-06-15T11:06:34.740Z,3.83
2023-06-15T11:09:06.346Z,4.40
2023-06-15T11:11:38.003Z,3.67
2023-06-15T11:14:08.786Z,4.05
2023-06-15T11:16:39.655Z,3.85
2023-06-15T11:19:42.768Z,3.70
2023-06-15T11:22:13.264Z,3.50
2023-06-15T11:24:43.364Z,4.10
2023-06-15T11:27:13.796Z,4.45
2023-06-15T11:29:44.126Z,3.83
2023-06-15T11:32:13.318Z,3.90
2023-06-15T11:34:43.512Z,4.53
2023-06-15T11:37:15.114Z,4.70
2023-06-15T11:39:47.881Z,4.15
2023-06-15T11:42:16.943Z,4.38
2023-06-15T11:44:46.910Z,3.85
2023-06-15T11:47:15.714Z,4.10
2023-06-15T11:49:48.225Z,4.03
2023-06-15T11:52:17.673Z,4.57
2023-06-15T11:54:52.348Z,4.75
2023-06-15T11:57:22.846Z,3.55
2023-06-15T11:59:53.025Z,4.07
2023-06-15T12:02:22.625Z,3.63
2023-06-15T12:04:58.803Z,3.95
2023-06-15T12:07:38.135Z,5.38
2023-06-15T12:10:12.704Z,4.30
2023-06-15T12:12:42.874Z,4.17
2023-06-15T12:15:11.854Z,4.65
2023-06-15T12:17:40.793Z,4.57
2023-06-15T12:20:12.561Z,3.80
2023-06-15T12:22:45.981Z,4.40
2023-06-15T12:25:15.716Z,4.13
2023-06-15T12:27:47.105Z,4.00
2023-06-15T12:30:19.399Z,4.22
2023-06-15T12:32:51.384Z,4.47
2023-06-15T12:35:29.602Z,4.22
2023-06-15T12:37:59.038Z,4.60
2023-06-15T12:40:28.368Z,4.40
2023-06-15T12:43:05.661Z,4.72
2023-06-15T12:45:35.895Z,4.53
2023-06-15T12:48:06.440Z,3.13
2023-06-15T12:50:36.765Z,3.17
2023-06-15T12:53:06.320Z,3.75
2023-06-15T12:55:35.630Z,3.28
2023-06-15T12:58:05.490Z,3.53
2023-06-15T13:00:34.508Z,3.53
2023-06-15T13:03:07.037Z,3.50
2023-06-15T13:05:38.737Z,3.45
2023-06-15T13:08:07.754Z,3.58
2023-06-15T13:10:37.801Z,3.83
2023-06-15T13:13:07.601Z,3.80
2023-06-15T13:15:38.854Z,3.30
2023-06-15T13:18:09.549Z,3.70
2023-06-15T13:20:40.511Z,3.03
2023-06-15T13:23:12.667Z,3.30
2023-06-15T13:25:42.093Z,3.47
2023-06-15T13:28:11.210Z,2.77
2023-06-15T13:30:40.063Z,2.72
2023-06-15T13:33:09.725Z,3.40
2023-06-15T13:35:40.864Z,3.25
2023-06-15T13:38:09.762Z,3.47
2023-06-15T13:40:40.533Z,2.97
2023-06-15T13:43:11.586Z,3.30
2023-06-15T13:45:41.397Z,3.40
2023-06-15T13:48:10.658Z,3.28
2023-06-15T13:50:47.960Z,3.20
2023-06-15T13:53:17.317Z,3.07
2023-06-15T13:55:47.827Z,3.80
2023-06-15T13:58:17.186Z,2.92
2023-06-15T14:00:46.211Z,2.95
2023-06-15T14:03:16.389Z,3.30
2023-06-15T14:05:46.904Z,3.23
2023-06-15T14:08:15.691Z,3.25
2023-06-15T14:10:44.978Z,3.50
2023-06-15T14:13:13.807Z,3.25
2023-06-15T14:15:42.621Z,3.35
2023-06-15T14:18:11.800Z,2.97
2023-06-15T14:20:40.728Z,3.72
2023-06-15T14:23:11.468Z,3.65
2023-06-15T14:25:40.761Z,3.83
2023-06-15T14:28:09.994Z,3.67
2023-06-15T14:30:38.821Z,2.93
2023-06-15T14:33:07.670Z,3.47
2023-06-15T14:35:38.721Z,3.58
2023-06-15T14:38:07.654Z,3.30
2023-06-15T14:40:38.498Z,3.35
2023-06-15T14:43:07.649Z,3.50
2023-06-15T14:45:36.406Z,3.50
2023-06-15T14:48:05.577Z,4.38
2023-06-15T14:50:34.435Z,3.13
2023-06-15T14:53:03.761Z,3.47
2023-06-15T14:55:32.832Z,4.53
2023-06-15T14:58:03.312Z,4.10
2023-06-15T15:00:32.166Z,3.65
2023-06-15T15:03:01.080Z,3.10
2023-06-15T15:05:30.071Z,4.03
2023-06-15T15:07:58.923Z,3.20
2023-06-15T15:10:28.986Z,3.22
2023-06-15T15:12:58.052Z,3.80
2023-06-15T15:15:30.678Z,3.10
2023-06-15T15:17:59.844Z,3.25
2023-06-15T15:20:28.899Z,3.17
2023-06-15T15:22:58.087Z,3.30
2023-06-15T15:25:27.172Z,3.45
2023-06-15T15:27:56.081Z,3.25
2023-06-15T15:30:25.595Z,3.20
2023-06-15T15:32:59.896Z,3.00
2023-06-15T15:35:29.242Z,3.60
2023-06-15T15:37:58.101Z,3.63
2023-06-15T15:40:26.929Z,3.30
2023-06-15T15:42:55.675Z,3.33
2023-06-15T15:45:24.740Z,3.30
2023-06-15T15:47:53.620Z,3.13
2023-06-15T15:50:24.722Z,2.75
2023-06-15T15:53:00.759Z,2.72
2023-06-15T15:55:31.428Z,2.90
2023-06-15T15:58:00.542Z,3.00
2023-06-15T16:00:29.702Z,3.30
2023-06-15T16:02:58.747Z,2.88
2023-06-15T16:05:29.379Z,2.97
2023-06-15T16:07:58.344Z,2.90
2023-06-15T16:10:28.356Z,4.90
2023-06-15T16:12:57.253Z,3.00
2023-06-15T16:15:26.493Z,2.65
2023-06-15T16:17:55.454Z,2.67
2023-06-15T16:20:25.683Z,2.80
2023-06-15T16:23:02.015Z,2.70
2023-06-15T16:25:30.884Z,2.85
2023-06-15T16:27:59.690Z,3.20
2023-06-15T16:30:28.566Z,2.60
2023-06-15T16:32:57.449Z,3.20
2023-06-15T16:35:27.575Z,2.87
2023-06-15T16:37:56.572Z,3.15
2023-06-15T16:40:26.903Z,2.85
2023-06-15T16:42:55.715Z,3.63
2023-06-15T16:45:25.569Z,3.88
2023-06-15T16:47:55.462Z,3.33
2023-06-15T16:50:24.885Z,3.03
2023-06-15T16:52:53.905Z,3.40
2023-06-15T16:55:22.900Z,3.13
2023-06-15T16:57:55.221Z,3.00
2023-06-15T17:00:25.614Z,3.10
2023-06-15T17:02:56.465Z,3.03
2023-06-15T17:05:26.040Z,2.60
2023-06-15T17:07:54.915Z,3.20
2023-06-15T17:10:25.496Z,3.22
2023-06-15T17:12:55.838Z,2.63
2023-06-15T17:15:24.596Z,2.97
2023-06-15T17:17:53.507Z,2.70
2023-06-15T17:20:22.390Z,3.15
2023-06-15T17:22:51.275Z,3.40
2023-06-15T17:25:20.227Z,2.50
2023-06-15T17:27:49.151Z,3.00
2023-06-15T17:30:20.122Z,2.88
2023-06-15T17:32:51.548Z,2.60
2023-06-15T17:35:24.974Z,3.13
2023-06-15T17:37:53.869Z,3.10
2023-06-15T17:40:22.996Z,3.10
2023-06-15T17:42:54.190Z,3.22
2023-06-15T17:45:28.337Z,2.90
2023-06-15T17:47:57.198Z,3.40
2023-06-15T17:50:28.482Z,3.37
2023-06-15T17:52:57.475Z,3.05
2023-06-15T17:55:28.144Z,3.40
2023-06-15T17:57:56.992Z,3.40
2023-06-15T18:00:27.228Z,3.40
2023-06-15T18:02:56.132Z,3.33
2023-06-15T18:05:25.098Z,3.13
2023-06-15T18:07:54.247Z,3.30
2023-06-15T18:10:24.321Z,4.40
2023-06-15T18:12:53.378Z,4.28
2023-06-15T18:15:24.982Z,3.63
2023-06-15T18:17:57.996Z,3.97
2023-06-15T18:20:27.217Z,4.40
2023-06-15T18:22:56.112Z,5.43
2023-06-15T18:25:25.123Z,4.47
2023-06-15T18:27:54.709Z,4.27
2023-06-15T18:30:24.628Z,3.92
2023-06-15T18:32:55.593Z,4.18
2023-06-15T18:35:26.625Z,3.50
2023-06-15T18:37:56.707Z,3.80
2023-06-15T18:40:25.720Z,3.27
2023-06-15T18:42:54.739Z,3.67
2023-06-15T18:45:23.881Z,3.70
2023-06-15T18:47:52.765Z,4.20
2023-06-15T18:50:23.403Z,3.60
2023-06-15T18:52:52.290Z,3.67
2023-06-15T18:55:21.359Z,3.33
2023-06-15T18:57:50.354Z,3.22
2023-06-15T19:00:19.577Z,3.80
2023-06-15T19:02:49.215Z,3.30
2023-06-15T19:05:18.644Z,3.53
2023-06-15T19:07:50.747Z,3.22
2023-06-15T19:10:20.047Z,3.08
2023-06-15T19:12:49.625Z,3.78
2023-06-15T19:15:18.853Z,3.78
2023-06-15T19:17:47.871Z,3.00
2023-06-15T19:20:17.126Z,3.33
2023-06-15T19:22:46.120Z,3.20
2023-06-15T19:25:16.558Z,3.17
2023-06-15T19:27:45.992Z,3.38
2023-06-15T19:30:16.949Z,2.90
2023-06-15T19:32:46.061Z,2.92
2023-06-15T19:35:15.800Z,3.28
2023-06-15T19:37:49.331Z,3.80
2023-06-15T19:40:30.360Z,3.92
2023-06-15T19:43:33.541Z,3.03
2023-06-15T19:46:02.696Z,3.25
2023-06-15T19:48:31.511Z,3.08
2023-06-15T19:51:04.064Z,3.35
2023-06-15T19:53:35.249Z,3.58
2023-06-15T19:56:09.064Z,3.03
2023-06-15T19:58:38.239Z,2.90
2023-06-15T20:01:10.165Z,2.97
2023-06-15T20:03:39.217Z,3.28
2023-06-15T20:06:11.827Z,3.00
2023-06-15T20:08:41.469Z,2.87
2023-06-15T20:11:16.469Z,2.53
2023-06-15T20:14:16.314Z,2.72
2023-06-15T20:16:45.437Z,2.92
2023-06-15T20:19:16.706Z,2.67
2023-06-15T20:21:45.923Z,2.70
2023-06-15T20:24:14.855Z,2.75
2023-06-15T20:26:46.062Z,2.90
2023-06-15T20:29:15.069Z,3.28
2023-06-15T20:31:44.632Z,3.10
2023-06-15T20:34:38.167Z,2.97
2023-06-15T20:37:15.183Z,3.10
2023-06-15T20:39:52.276Z,3.13
2023-06-15T20:42:24.664Z,3.58
2023-06-15T20:44:57.852Z,3.60
2023-06-15T20:47:39.779Z,3.83
2023-06-15T20:50:33.360Z,3.70
2023-06-15T20:53:06.718Z,3.30
2023-06-15T20:55:35.944Z,3.78
2023-06-15T20:58:07.592Z,3.70
2023-06-15T21:00:41.031Z,3.70
2023-06-15T21:03:10.060Z,3.80
2023-06-15T21:05:39.322Z,3.60
2023-06-15T21:08:08.766Z,4.03
2023-06-15T21:10:37.631Z,4.07
2023-06-15T21:13:14.771Z,4.27
2023-06-15T21:15:46.610Z,3.80
2023-06-15T21:18:18.459Z,3.83
2023-06-15T21:20:50.966Z,3.58
2023-06-15T21:23:20.313Z,4.05
2023-06-15T21:25:52.107Z,4.10
2023-06-15T21:28:24.695Z,3.75
2023-06-15T21:30:53.639Z,4.50
2023-06-15T21:33:22.839Z,3.90
2023-06-15T21:35:51.582Z,3.95
2023-06-15T21:38:22.053Z,3.40
2023-06-15T21:40:52.018Z,3.95
2023-06-15T21:43:23.536Z,4.10
2023-06-15T21:45:52.942Z,3.70
2023-06-15T21:48:21.775Z,4.72
2023-06-15T21:50:50.601Z,4.23
2023-06-15T21:53:19.497Z,4.00
2023-06-15T21:55:50.394Z,4.20
2023-06-15T21:58:19.660Z,4.03
2023-06-15T22:00:50.292Z,4.00
2023-06-15T22:03:19.201Z,4.30
2023-06-15T22:05:49.330Z,4.05
2023-06-15T22:08:18.253Z,4.55
2023-06-15T22:10:48.297Z,4.00
2023-06-15T22:13:22.064Z,4.30
2023-06-15T22:15:54.404Z,4.50
2023-06-15T22:18:28.513Z,4.10
2023-06-15T22:20:58.814Z,5.05
2023-06-15T22:23:29.122Z,4.95
2023-06-15T22:25:58.431Z,4.28
2023-06-15T22:28:28.650Z,6.30
2023-06-15T22:30:59.905Z,3.92
2023-06-15T22:33:31.631Z,4.30
2023-06-15T22:36:00.549Z,19.13
2023-06-15T22:38:29.360Z,12.32
2023-06-15T22:40:58.301Z,5.53
2023-06-15T22:43:29.107Z,4.93
2023-06-15T22:46:02.340Z,4.28
2023-06-15T22:48:32.262Z,4.93
2023-06-15T22:51:01.068Z,4.57
2023-06-15T22:53:29.898Z,4.17
2023-06-15T22:55:58.750Z,4.50
2023-06-15T22:58:27.507Z,4.20
2023-06-15T23:01:00.358Z,4.20
2023-06-15T23:03:30.149Z,4.57
2023-06-15T23:06:00.277Z,4.60
2023-06-15T23:08:31.961Z,4.65
2023-06-15T23:11:02.898Z,4.47
2023-06-15T23:13:32.476Z,5.50
2023-06-15T23:16:02.863Z,4.78
2023-06-15T23:18:33.036Z,4.07
2023-06-15T23:21:02.226Z,5.20
2023-06-15T23:23:38.652Z,4.55
2023-06-15T23:26:09.927Z,4.63
2023-06-15T23:28:42.122Z,4.65
2023-06-15T23:31:12.307Z,4.50
2023-06-15T23:33:41.063Z,5.93
2023-06-15T23:36:15.247Z,4.35
2023-06-15T23:38:44.216Z,4.53
2023-06-15T23:41:13.033Z,4.35
2023-06-15T23:43:41.827Z,4.50
2023-06-15T23:46:12.027Z,4.25
2023-06-15T23:48:40.796Z,4.13
2023-06-15T23:51:11.296Z,4.40
2023-06-15T23:53:40.732Z,4.00
2023-06-15T23:56:11.095Z,4.13
2023-06-15T23:58:40.570Z,4.47
